Perryville, Kentucky
Current Conditions -  °F | °C
As of 5:15 PM on Wednesday 28 Jan 2015 (Local Time) from KDVK Reporting Station
Clear Clear  
Wind Chill: 33°   Ceiling: Unl
Heat Index: 37°   Visibility: 10mi
Dew Point: 19°   Wind: 6mph
Humidity: 48%   Direction: 160°SSE
Pressure: 30.24"   Gusts: NA
Location:  37.65°N, 84.95°W
Report Text: KDVK 282215Z AUTO 16005KT 10SM CLR 03/M07 A3024 RMK AO2
Loading
Personal Weather Stations






























Interactive Weather Map New forecast layout! Learn more

10-Day Weather Forecast

Advertisements
Track Severe Weather on mobile